createdAt,value
2018-11-03T00:01:58.719Z,18.49
2018-11-03T00:04:24.745Z,18.47
2018-11-03T00:06:50.732Z,18.44
2018-11-03T00:09:16.781Z,18.28
2018-11-03T00:11:42.800Z,18.26
2018-11-03T00:14:08.779Z,18.28
2018-11-03T00:16:34.769Z,18.27
2018-11-03T00:19:00.753Z,18.31
2018-11-03T00:21:26.701Z,18.34
2018-11-03T00:23:52.729Z,18.36
2018-11-03T00:26:18.720Z,18.30
2018-11-03T00:28:44.712Z,18.34
2018-11-03T00:31:10.664Z,18.29
2018-11-03T00:33:36.613Z,18.23
2018-11-03T00:36:02.579Z,18.17
2018-11-03T00:38:28.533Z,18.20
2018-11-03T00:40:54.527Z,18.23
2018-11-03T00:43:20.476Z,18.17
2018-11-03T00:45:46.436Z,18.13
2018-11-03T00:48:12.393Z,18.12
2018-11-03T00:50:38.369Z,18.14
2018-11-03T00:53:04.366Z,18.12
2018-11-03T00:55:30.328Z,18.14
2018-11-03T00:57:56.306Z,18.20
2018-11-03T01:00:22.274Z,18.22
2018-11-03T01:02:48.289Z,18.27
2018-11-03T01:05:14.307Z,18.26
2018-11-03T01:07:40.260Z,18.23
2018-11-03T01:10:06.218Z,18.24
2018-11-03T01:12:32.204Z,18.20
2018-11-03T01:14:58.191Z,18.11
2018-11-03T01:17:24.177Z,18.07
2018-11-03T01:19:50.143Z,18.12
2018-11-03T01:22:16.174Z,18.14
2018-11-03T01:24:42.173Z,18.04
2018-11-03T01:27:08.161Z,17.97
2018-11-03T01:29:34.140Z,17.96
2018-11-03T01:32:00.126Z,17.87
2018-11-03T01:34:26.096Z,17.97
2018-11-03T01:36:52.059Z,18.07
2018-11-03T01:39:18.044Z,18.01
2018-11-03T01:41:44.037Z,18.02
2018-11-03T01:44:09.973Z,18.01
2018-11-03T01:46:35.974Z,17.97
2018-11-03T01:49:01.956Z,17.86
2018-11-03T01:51:27.943Z,17.84
2018-11-03T01:53:53.930Z,17.91
2018-11-03T01:56:19.943Z,17.90
2018-11-03T01:58:45.918Z,17.93
2018-11-03T02:01:11.897Z,17.93
2018-11-03T02:03:37.874Z,17.93
2018-11-03T02:06:03.842Z,17.90
2018-11-03T02:08:29.812Z,17.95
2018-11-03T02:10:55.828Z,17.97
2018-11-03T02:13:21.825Z,17.92
2018-11-03T02:15:47.780Z,17.91
2018-11-03T02:18:13.734Z,17.85
2018-11-03T02:20:39.703Z,17.84
2018-11-03T02:23:05.698Z,17.88
2018-11-03T02:25:31.672Z,17.88
2018-11-03T02:27:57.645Z,17.89
2018-11-03T02:30:23.624Z,17.84
2018-11-03T02:32:49.620Z,17.78
2018-11-03T02:35:15.626Z,17.66
2018-11-03T02:37:41.573Z,17.63
2018-11-03T02:40:07.535Z,17.68
2018-11-03T02:42:33.477Z,17.68
2018-11-03T02:44:59.428Z,17.66
2018-11-03T02:47:25.396Z,17.69
2018-11-03T02:49:51.344Z,17.74
2018-11-03T02:52:17.364Z,17.79
2018-11-03T02:54:43.343Z,17.83
2018-11-03T02:57:09.327Z,17.95
2018-11-03T02:59:35.288Z,17.99
2018-11-03T03:02:01.245Z,17.95
2018-11-03T03:04:27.223Z,17.95
2018-11-03T03:06:53.208Z,17.93
2018-11-03T03:09:19.154Z,17.94
2018-11-03T03:11:45.177Z,17.82
2018-11-03T03:14:11.172Z,17.76
2018-11-03T03:16:37.144Z,17.81
2018-11-03T03:19:03.095Z,17.83
2018-11-03T03:21:29.071Z,17.80
2018-11-03T03:23:55.021Z,17.81
2018-11-03T03:26:21.019Z,17.83
2018-11-03T03:28:46.990Z,17.91
2018-11-03T03:31:12.937Z,17.82
2018-11-03T03:33:38.904Z,17.84
2018-11-03T03:36:04.878Z,17.88
2018-11-03T03:38:30.836Z,17.97
2018-11-03T03:40:56.795Z,17.91
2018-11-03T03:43:22.748Z,17.94
2018-11-03T03:45:48.712Z,17.90
2018-11-03T03:48:14.658Z,17.93
2018-11-03T03:50:40.631Z,17.88
2018-11-03T03:53:06.598Z,17.89
2018-11-03T03:55:32.571Z,18.00
2018-11-03T03:57:58.511Z,18.11
2018-11-03T04:00:24.464Z,18.19
2018-11-03T04:02:50.414Z,18.21
2018-11-03T04:05:16.389Z,18.21
2018-11-03T04:07:42.371Z,18.34
2018-11-03T04:10:08.340Z,18.38
2018-11-03T04:12:34.320Z,18.41
2018-11-03T04:15:00.273Z,18.45
2018-11-03T04:17:26.225Z,18.49
2018-11-03T04:19:52.196Z,18.58
2018-11-03T04:22:18.183Z,18.63
2018-11-03T04:24:44.168Z,18.59
2018-11-03T04:27:10.268Z,18.55
2018-11-03T04:29:36.285Z,18.47
2018-11-03T04:32:02.217Z,18.41
2018-11-03T04:34:28.188Z,18.43
2018-11-03T04:36:54.152Z,18.47
2018-11-03T04:39:20.130Z,18.52
2018-11-03T04:41:46.104Z,18.50
2018-11-03T04:44:12.070Z,18.56
2018-11-03T04:46:38.050Z,18.57
2018-11-03T04:49:04.033Z,18.63
2018-11-03T04:51:30.001Z,18.62
2018-11-03T04:53:56.000Z,18.56
2018-11-03T04:56:21.978Z,18.54
2018-11-03T04:58:47.959Z,18.54
2018-11-03T05:01:14.273Z,18.53
2018-11-03T05:03:40.253Z,18.60
2018-11-03T05:06:06.219Z,18.58
2018-11-03T05:08:32.189Z,18.60
2018-11-03T05:10:58.193Z,18.61
2018-11-03T05:15:55.756Z,18.51
2018-11-03T05:18:21.713Z,18.45
2018-11-03T05:20:47.731Z,18.49
2018-11-03T05:23:13.796Z,18.54
2018-11-03T05:25:39.757Z,18.54
2018-11-03T05:28:05.736Z,18.49
2018-11-03T05:30:31.669Z,18.55
2018-11-03T05:32:57.616Z,18.53
2018-11-03T05:35:23.552Z,18.58
2018-11-03T05:37:49.525Z,18.57
2018-11-03T05:40:15.527Z,18.55
2018-11-03T05:42:41.510Z,18.50
2018-11-03T05:45:07.530Z,18.38
2018-11-03T05:47:33.524Z,18.33
2018-11-03T05:49:59.511Z,18.36
2018-11-03T05:52:25.468Z,18.34
2018-11-03T05:54:51.491Z,18.27
2018-11-03T05:57:17.474Z,18.27
2018-11-03T05:59:43.433Z,18.28
2018-11-03T06:02:09.404Z,18.30
2018-11-03T06:04:35.402Z,18.30
2018-11-03T06:07:01.366Z,18.36
2018-11-03T06:09:27.345Z,18.38
2018-11-03T06:11:53.349Z,18.33
2018-11-03T06:14:19.343Z,18.36
2018-11-03T06:16:45.306Z,18.45
2018-11-03T06:19:16.481Z,18.48
2018-11-03T06:21:42.474Z,18.46
2018-11-03T06:24:08.472Z,18.38
2018-11-03T06:26:34.457Z,18.29
2018-11-03T06:29:00.454Z,18.30
2018-11-03T06:31:26.423Z,18.34
2018-11-03T06:33:52.395Z,18.33
2018-11-03T06:36:18.377Z,18.35
2018-11-03T06:38:44.436Z,18.40
2018-11-03T06:41:10.358Z,18.36
2018-11-03T06:43:36.330Z,18.33
2018-11-03T06:46:02.325Z,18.39
2018-11-03T06:48:28.289Z,18.43
2018-11-03T06:50:54.293Z,18.48
2018-11-03T06:53:21.665Z,18.48
2018-11-03T06:55:49.834Z,18.54
2018-11-03T06:58:15.870Z,18.53
2018-11-03T07:05:44.478Z,18.58
2018-11-03T07:08:10.418Z,18.63
2018-11-03T07:10:36.376Z,18.64
2018-11-03T07:13:02.393Z,18.59
2018-11-03T07:15:28.354Z,18.57
2018-11-03T07:17:55.422Z,18.54
2018-11-03T07:20:21.343Z,18.60
2018-11-03T07:22:47.321Z,18.66
2018-11-03T07:25:13.338Z,18.74
2018-11-03T07:27:39.283Z,18.75
2018-11-03T07:30:05.264Z,18.76
2018-11-03T07:32:31.244Z,18.69
2018-11-03T07:34:57.233Z,18.81
2018-11-03T07:37:23.205Z,19.00
2018-11-03T07:39:49.194Z,19.04
2018-11-03T07:42:15.223Z,19.12
2018-11-03T07:44:41.201Z,19.33
2018-11-03T07:47:07.181Z,19.41
2018-11-03T07:49:33.147Z,19.48
2018-11-03T07:51:59.133Z,19.58
2018-11-03T07:54:25.119Z,19.64
2018-11-03T07:56:51.090Z,19.63
2018-11-03T07:59:17.085Z,19.63
2018-11-03T08:01:43.068Z,19.71
2018-11-03T08:04:13.405Z,19.80
2018-11-03T08:06:39.396Z,19.81
2018-11-03T08:09:05.481Z,19.85
2018-11-03T08:11:31.537Z,19.90
2018-11-03T08:13:57.510Z,19.89
2018-11-03T08:16:24.535Z,19.90
2018-11-03T08:18:50.518Z,19.91
2018-11-03T08:21:16.510Z,19.96
2018-11-03T08:23:42.504Z,19.90
2018-11-03T08:26:08.495Z,19.90
2018-11-03T08:28:38.534Z,19.90
2018-11-03T08:31:04.545Z,19.94
2018-11-03T08:33:30.561Z,19.96
2018-11-03T08:35:56.655Z,20.01
2018-11-03T08:38:22.713Z,20.03
2018-11-03T08:40:48.733Z,20.03
2018-11-03T08:43:15.771Z,20.07
2018-11-03T08:45:41.758Z,20.08
2018-11-03T08:48:07.784Z,20.10
2018-11-03T08:50:33.732Z,20.10
2018-11-03T08:52:59.794Z,20.07
2018-11-03T08:55:25.892Z,20.04
2018-11-03T08:57:51.972Z,20.04
2018-11-03T09:00:17.972Z,20.06
2018-11-03T09:02:43.937Z,19.96
2018-11-03T09:05:10.480Z,19.96
2018-11-03T09:07:36.454Z,19.89
2018-11-03T09:10:02.585Z,19.89
2018-11-03T09:12:28.602Z,19.93
2018-11-03T09:14:54.640Z,19.96
2018-11-03T09:17:20.624Z,20.04
2018-11-03T09:19:50.423Z,20.06
2018-11-03T09:22:16.419Z,20.05
2018-11-03T09:24:42.394Z,20.05
2018-11-03T09:27:08.393Z,20.00
2018-11-03T09:29:34.384Z,20.03
2018-11-03T09:32:00.423Z,20.00
2018-11-03T09:34:26.414Z,19.99
2018-11-03T09:36:52.396Z,19.89
2018-11-03T09:39:18.531Z,19.87
2018-11-03T09:41:44.441Z,19.94
2018-11-03T09:44:10.417Z,20.03
2018-11-03T09:46:36.434Z,20.04
2018-11-03T09:49:02.420Z,20.06
2018-11-03T09:51:28.471Z,20.15
2018-11-03T09:53:54.461Z,20.26
2018-11-03T09:56:20.520Z,20.27
2018-11-03T09:58:46.464Z,20.28
2018-11-03T10:01:12.492Z,20.21
2018-11-03T10:03:38.494Z,20.20
2018-11-03T10:06:04.568Z,20.20
2018-11-03T10:08:30.615Z,20.22
2018-11-03T10:10:56.592Z,20.20
2018-11-03T10:13:22.599Z,20.22
2018-11-03T10:15:48.597Z,20.22
2018-11-03T10:18:14.516Z,20.25
2018-11-03T10:20:40.524Z,20.24
2018-11-03T10:23:06.684Z,20.33
2018-11-03T10:25:32.536Z,20.37
2018-11-03T10:27:58.581Z,20.39
2018-11-03T10:30:24.537Z,20.39
2018-11-03T10:32:50.633Z,20.37
2018-11-03T10:35:20.403Z,20.39
2018-11-03T10:37:46.508Z,20.36
2018-11-03T10:40:12.525Z,20.37
2018-11-03T10:42:38.542Z,20.46
2018-11-03T10:45:04.613Z,20.58
2018-11-03T10:47:30.644Z,20.63
2018-11-03T10:49:56.751Z,20.67
2018-11-03T10:52:22.734Z,20.66
2018-11-03T10:54:48.687Z,20.60
2018-11-03T10:57:14.654Z,20.64
2018-11-03T10:59:40.601Z,20.65
2018-11-03T11:02:06.569Z,20.65
2018-11-03T11:04:32.652Z,20.58
2018-11-03T11:06:58.601Z,20.61
2018-11-03T11:09:24.563Z,20.75
2018-11-03T11:11:50.567Z,20.79
2018-11-03T11:14:16.630Z,20.80
2018-11-03T11:16:43.336Z,20.76
2018-11-03T11:19:09.245Z,20.76
2018-11-03T11:21:35.257Z,20.83
2018-11-03T11:24:01.237Z,20.91
2018-11-03T11:26:27.875Z,20.90
2018-11-03T11:28:53.894Z,20.88
2018-11-03T11:31:19.901Z,20.84
2018-11-03T11:33:47.723Z,20.88
2018-11-03T11:36:13.755Z,20.87
2018-11-03T11:38:39.934Z,20.83
2018-11-03T11:41:05.908Z,20.76
2018-11-03T11:43:32.014Z,20.79
2018-11-03T11:45:58.023Z,20.68
2018-11-03T11:48:24.116Z,20.81
2018-11-03T11:50:50.101Z,20.81
2018-11-03T11:53:16.129Z,20.73
2018-11-03T11:55:43.119Z,20.65
2018-11-03T11:58:09.085Z,20.57
2018-11-03T12:00:35.195Z,20.57
2018-11-03T12:03:01.339Z,20.61
2018-11-03T12:05:27.348Z,20.69
2018-11-03T12:07:53.380Z,20.67
2018-11-03T12:10:19.641Z,20.65
2018-11-03T12:12:45.694Z,20.69
2018-11-03T12:15:11.772Z,20.75
2018-11-03T12:17:37.901Z,20.77
2018-11-03T12:20:04.121Z,20.78
2018-11-03T12:22:30.384Z,20.81
2018-11-03T12:24:57.623Z,20.78
2018-11-03T12:27:23.660Z,20.76
2018-11-03T12:29:49.910Z,20.78
2018-11-03T12:32:16.007Z,20.80
2018-11-03T12:34:42.184Z,20.80
2018-11-03T12:37:08.416Z,20.74
2018-11-03T12:39:34.545Z,20.75
2018-11-03T12:42:00.635Z,20.77
2018-11-03T12:47:12.259Z,20.75
2018-11-03T12:52:10.005Z,20.73
2018-11-03T12:57:07.311Z,20.76
2018-11-03T12:59:34.383Z,20.75
2018-11-03T13:02:02.362Z,20.72
2018-11-03T13:04:28.349Z,20.75
2018-11-03T13:06:54.340Z,20.76
2018-11-03T13:09:21.413Z,20.75
2018-11-03T13:11:47.406Z,20.75
2018-11-03T13:14:13.690Z,20.76
2018-11-03T13:16:39.899Z,20.77
2018-11-03T13:19:05.965Z,20.79
2018-11-03T13:21:32.685Z,20.78
2018-11-03T13:23:59.786Z,20.77
2018-11-03T13:26:25.830Z,20.73
2018-11-03T13:28:52.668Z,20.64
2018-11-03T13:31:18.817Z,20.65
2018-11-03T13:33:44.923Z,20.63
2018-11-03T13:36:10.997Z,20.58
2018-11-03T13:38:37.050Z,20.55
2018-11-03T13:41:03.122Z,20.54
2018-11-03T13:43:29.622Z,20.52
2018-11-03T13:45:56.229Z,20.49
2018-11-03T13:48:22.228Z,20.45
2018-11-03T13:50:48.236Z,20.47
2018-11-03T13:53:15.158Z,20.49
2018-11-03T13:55:41.171Z,20.52
2018-11-03T14:00:39.552Z,20.49
2018-11-03T14:03:05.585Z,20.49
2018-11-03T14:05:31.568Z,20.53
2018-11-03T14:07:58.715Z,20.52
2018-11-03T14:10:24.812Z,20.49
2018-11-03T14:12:50.840Z,20.44
2018-11-03T14:15:16.915Z,20.43
2018-11-03T14:17:43.701Z,20.40
2018-11-03T14:20:09.814Z,20.40
2018-11-03T14:22:35.813Z,20.38
2018-11-03T14:25:01.822Z,20.32
2018-11-03T14:27:28.648Z,20.32
2018-11-03T14:29:55.063Z,20.37
2018-11-03T14:32:21.148Z,20.44
2018-11-03T14:34:48.471Z,20.42
2018-11-03T14:37:14.593Z,20.42
2018-11-03T14:39:41.671Z,20.44
2018-11-03T14:42:08.744Z,20.47
2018-11-03T14:44:34.851Z,20.47
2018-11-03T14:47:01.850Z,20.48
2018-11-03T14:49:27.994Z,20.49
2018-11-03T14:51:54.148Z,20.53
2018-11-03T14:54:20.284Z,20.52
2018-11-03T14:56:46.458Z,20.40
2018-11-03T14:59:12.597Z,20.34
2018-11-03T15:01:38.729Z,20.30
2018-11-03T15:04:04.866Z,20.34
2018-11-03T15:06:31.050Z,20.32
2018-11-03T15:11:29.551Z,20.28
2018-11-03T15:13:55.829Z,20.14
2018-11-03T15:16:21.823Z,20.15
2018-11-03T15:18:47.930Z,20.15
2018-11-03T15:21:14.086Z,20.19
2018-11-03T15:23:40.214Z,20.15
2018-11-03T15:26:06.374Z,20.14
2018-11-03T15:28:32.518Z,20.14
2018-11-03T15:30:58.603Z,20.16
2018-11-03T15:33:25.108Z,20.19
2018-11-03T15:35:51.302Z,20.17
2018-11-03T15:38:17.424Z,20.16
2018-11-03T15:40:43.502Z,20.20
2018-11-03T15:43:09.545Z,20.16
2018-11-03T15:45:35.644Z,20.14
2018-11-03T15:48:01.730Z,20.16
2018-11-03T15:50:27.821Z,20.20
2018-11-03T15:52:53.832Z,20.19
2018-11-03T15:55:19.903Z,20.14
2018-11-03T15:57:45.993Z,20.13
2018-11-03T16:00:12.068Z,20.10
2018-11-03T16:02:38.147Z,20.07
2018-11-03T16:05:04.211Z,20.05
2018-11-03T16:07:30.226Z,20.10
2018-11-03T16:09:56.309Z,20.10
2018-11-03T16:12:22.515Z,20.08
2018-11-03T16:14:48.624Z,20.08
2018-11-03T16:17:14.812Z,20.09
2018-11-03T16:19:40.963Z,20.10
2018-11-03T16:22:07.020Z,20.09
2018-11-03T16:24:33.124Z,20.08
2018-11-03T16:26:59.350Z,20.07
2018-11-03T16:29:25.485Z,20.08
2018-11-03T16:31:51.626Z,20.07
2018-11-03T16:34:17.717Z,20.05
2018-11-03T16:36:43.807Z,20.05
2018-11-03T16:39:09.881Z,20.00
2018-11-03T16:41:36.076Z,20.05
2018-11-03T16:44:02.198Z,20.01
2018-11-03T16:46:28.351Z,20.03
2018-11-03T16:48:54.539Z,20.02
2018-11-03T16:51:20.650Z,19.98
2018-11-03T16:53:46.840Z,19.99
2018-11-03T16:56:13.036Z,19.98
2018-11-03T16:58:39.260Z,19.97
2018-11-03T17:01:05.490Z,19.98
2018-11-03T17:03:31.745Z,20.03
2018-11-03T17:05:57.825Z,20.00
2018-11-03T17:08:23.951Z,19.93
2018-11-03T17:10:50.094Z,19.98
2018-11-03T17:13:16.298Z,20.00
2018-11-03T17:15:42.484Z,20.00
2018-11-03T17:18:08.577Z,20.07
2018-11-03T17:20:40.646Z,20.05
2018-11-03T17:23:09.740Z,19.96
2018-11-03T17:25:35.902Z,19.93
2018-11-03T17:28:02.131Z,19.95
2018-11-03T17:30:28.311Z,19.96
2018-11-03T17:32:54.456Z,19.99
2018-11-03T17:35:20.815Z,19.91
2018-11-03T17:40:24.430Z,19.93
2018-11-03T17:42:50.417Z,19.88
2018-11-03T17:45:16.397Z,19.87
2018-11-03T17:47:45.673Z,19.76
2018-11-03T17:50:11.655Z,19.78
2018-11-03T17:52:37.792Z,19.82
2018-11-03T17:55:03.855Z,19.82
2018-11-03T17:57:30.921Z,19.85
2018-11-03T18:00:00.993Z,19.80
2018-11-03T18:02:28.078Z,19.81
2018-11-03T18:04:54.190Z,19.83
2018-11-03T18:07:20.277Z,19.77
2018-11-03T18:09:46.572Z,19.86
2018-11-03T18:12:12.653Z,19.83
2018-11-03T18:14:39.787Z,19.84
2018-11-03T18:17:05.839Z,19.85
2018-11-03T18:19:31.995Z,19.79
2018-11-03T18:21:59.062Z,19.71
2018-11-03T18:24:25.104Z,19.73
2018-11-03T18:26:51.576Z,19.78
2018-11-03T18:29:17.664Z,19.79
2018-11-03T18:31:43.654Z,19.82
2018-11-03T18:34:09.723Z,19.81
2018-11-03T18:36:35.849Z,19.78
2018-11-03T18:39:05.769Z,19.68
2018-11-03T18:41:31.925Z,19.69
2018-11-03T18:43:58.064Z,19.61
2018-11-03T18:46:24.156Z,19.66
2018-11-03T18:48:50.167Z,19.63
2018-11-03T18:51:16.206Z,19.65
2018-11-03T18:53:42.346Z,19.56
2018-11-03T18:56:08.466Z,19.54
2018-11-03T18:58:34.697Z,19.55
2018-11-03T19:01:00.725Z,19.63
2018-11-03T19:03:26.750Z,19.71
2018-11-03T19:05:52.772Z,19.76
2018-11-03T19:08:18.997Z,19.64
2018-11-03T19:10:45.786Z,19.68
2018-11-03T19:13:11.909Z,19.74
2018-11-03T19:15:39.048Z,19.77
2018-11-03T19:20:37.257Z,19.88
2018-11-03T19:23:04.289Z,19.86
2018-11-03T19:25:32.421Z,19.83
2018-11-03T19:27:58.458Z,19.88
2018-11-03T19:30:24.519Z,19.84
2018-11-03T19:32:50.496Z,19.85
2018-11-03T19:35:16.508Z,19.84
2018-11-03T19:37:42.513Z,19.88
2018-11-03T19:40:08.567Z,19.85
2018-11-03T19:42:34.533Z,19.89
2018-11-03T19:45:00.544Z,19.90
2018-11-03T19:49:58.003Z,19.87
2018-11-03T19:52:24.043Z,19.87
2018-11-03T19:54:51.064Z,19.86
2018-11-03T19:59:49.783Z,19.88
2018-11-03T20:02:15.787Z,19.92
2018-11-03T20:04:41.819Z,19.85
2018-11-03T20:07:07.783Z,19.78
2018-11-03T20:09:34.031Z,19.80
2018-11-03T20:12:00.038Z,19.79
2018-11-03T20:14:26.206Z,19.84
2018-11-03T20:16:52.302Z,19.88
2018-11-03T20:19:19.478Z,19.86
2018-11-03T20:24:17.383Z,19.86
2018-11-03T20:26:43.416Z,19.80
2018-11-03T20:29:09.503Z,19.84
2018-11-03T20:31:35.538Z,19.80
2018-11-03T20:34:02.612Z,19.84
2018-11-03T20:36:28.677Z,19.85
2018-11-03T20:38:54.915Z,19.84
2018-11-03T20:41:20.981Z,19.80
2018-11-03T20:43:46.982Z,19.77
2018-11-03T20:46:12.949Z,19.68
2018-11-03T20:48:38.938Z,19.73
2018-11-03T20:51:04.919Z,19.70
2018-11-03T20:53:31.895Z,19.65
2018-11-03T20:55:57.880Z,19.69
2018-11-03T20:58:23.847Z,19.74
2018-11-03T21:00:49.848Z,19.74
2018-11-03T21:03:16.962Z,19.73
2018-11-03T21:05:43.036Z,19.76
2018-11-03T21:08:09.049Z,19.80
2018-11-03T21:10:35.235Z,19.80
2018-11-03T21:13:01.314Z,19.71
2018-11-03T21:15:27.345Z,19.69
2018-11-03T21:17:53.336Z,19.65
2018-11-03T21:20:19.338Z,19.58
2018-11-03T21:22:45.392Z,19.55
2018-11-03T21:25:11.367Z,19.58
2018-11-03T21:27:37.369Z,19.56
2018-11-03T21:30:03.469Z,19.53
2018-11-03T21:32:29.576Z,19.49
2018-11-03T21:34:55.606Z,19.51
2018-11-03T21:37:21.676Z,19.54
2018-11-03T21:39:47.672Z,19.61
2018-11-03T21:42:13.656Z,19.63
2018-11-03T21:44:39.621Z,19.67
2018-11-03T21:47:05.736Z,19.58
2018-11-03T21:49:31.648Z,19.63
2018-11-03T21:51:57.608Z,19.66
2018-11-03T21:54:23.573Z,19.66
2018-11-03T21:56:49.569Z,19.72
2018-11-03T21:59:15.564Z,19.71
2018-11-03T22:01:41.537Z,19.57
2018-11-03T22:04:07.572Z,19.64
2018-11-03T22:06:33.565Z,19.59
2018-11-03T22:08:59.558Z,19.60
2018-11-03T22:11:25.582Z,19.66
2018-11-03T22:13:51.553Z,19.70
2018-11-03T22:16:17.587Z,19.70
2018-11-03T22:18:43.579Z,19.69
2018-11-03T22:21:09.577Z,19.72
2018-11-03T22:23:35.548Z,19.75
2018-11-03T22:26:01.616Z,19.66
2018-11-03T22:28:27.570Z,19.63
2018-11-03T22:30:53.595Z,19.59
2018-11-03T22:33:19.593Z,19.62
2018-11-03T22:35:45.568Z,19.64
2018-11-03T22:38:11.581Z,19.63
2018-11-03T22:40:37.580Z,19.53
2018-11-03T22:43:03.562Z,19.65
2018-11-03T22:45:29.569Z,19.68
2018-11-03T22:47:55.566Z,19.66
2018-11-03T22:50:21.552Z,19.71
2018-11-03T22:52:47.581Z,19.73
2018-11-03T22:55:13.600Z,19.62
2018-11-03T22:57:39.596Z,19.56
2018-11-03T23:00:05.554Z,19.58
2018-11-03T23:02:31.582Z,19.60
2018-11-03T23:04:57.589Z,19.61
2018-11-03T23:07:23.600Z,19.60
2018-11-03T23:09:49.655Z,19.62
2018-11-03T23:12:15.664Z,19.51
2018-11-03T23:14:41.648Z,19.49
2018-11-03T23:17:07.671Z,19.47
2018-11-03T23:19:33.641Z,19.48
2018-11-03T23:21:59.665Z,19.49
2018-11-03T23:26:57.574Z,19.45
2018-11-03T23:29:23.656Z,19.40
2018-11-03T23:31:51.690Z,19.43
2018-11-03T23:34:17.735Z,19.45
2018-11-03T23:36:43.740Z,19.47
2018-11-03T23:39:09.920Z,19.50
2018-11-03T23:41:36.048Z,19.53
2018-11-03T23:44:02.070Z,19.40
2018-11-03T23:46:28.131Z,19.42
2018-11-03T23:48:54.187Z,19.49
2018-11-03T23:51:20.206Z,19.43
2018-11-03T23:53:46.308Z,19.45
2018-11-03T23:56:12.306Z,19.38
2018-11-03T23:58:38.294Z,19.33
